Time;durP1;ratioP1;P1;durP2;ratioP2;P2;SDS_P1;SDS_P2;PMS_P1;PMS_P2;Temp;Humidity;BMP_temperature;BMP_pressure;BME280_temperature;BME280_humidity;BME280_pressure;Samples;Min_cycle;Max_cycle;Signal;HPM_P1;HPM_P2
2023/07/31 00:01:58;;;;;;;1.37;0.80;;;;;;;;;;6204013;28;20711;-57
2023/07/31 00:04:59;;;;;;;1.63;1.10;;;;;;;;;;6195882;28;20029;-58
2023/07/31 00:07:59;;;;;;;1.23;0.90;;;;;;;;;;6201746;28;20183;-58
2023/07/31 00:10:59;;;;;;;1.08;0.90;;;;;;;;;;6205297;28;20025;-58
2023/07/31 00:13:59;;;;;;;;;;;;;;;;;;6199929;28;20076;-53
2023/07/31 00:16:59;;;;;;;0.77;0.63;;;;;;;;;;6198985;28;19914;-56
2023/07/31 00:20:00;;;;;;;0.83;0.83;;;;;;;;;;6203118;28;20105;-59
2023/07/31 00:23:00;;;;;;;1.00;0.90;;;;;;;;;;6198448;28;20175;-57
2023/07/31 00:26:00;;;;;;;0.77;0.77;;;;;;;;;;6196638;28;20341;-55
2023/07/31 00:29:00;;;;;;;1.30;0.90;;;;;;;;;;6201881;28;20029;-57
2023/07/31 00:32:01;;;;;;;;;;;;;;;;;;6205253;28;20034;-59
2023/07/31 00:35:01;;;;;;;0.90;0.80;;;;;;;;;;6208789;28;20040;-60
2023/07/31 00:38:01;;;;;;;1.17;0.70;;;;;;;;;;6208755;28;20105;-56
2023/07/31 00:41:02;;;;;;;1.27;0.83;;;;;;;;;;6187206;28;20559;-57
2023/07/31 00:44:02;;;;;;;1.25;0.80;;;;;;;;;;6207879;28;20044;-58
2023/07/31 00:47:02;;;;;;;1.40;0.80;;;;;;;;;;6209640;28;20065;-57
2023/07/31 00:50:03;;;;;;;1.40;1.00;;;;;;;;;;6209554;28;20304;-59
2023/07/31 00:53:03;;;;;;;1.33;1.17;;;;;;;;;;6210391;28;20689;-58
2023/07/31 00:56:04;;;;;;;1.30;1.20;;;;;;;;;;6206294;28;20040;-57
2023/07/31 00:59:04;;;;;;;1.48;1.23;;;;;;;;;;6210656;28;20043;-57
2023/07/31 01:02:05;;;;;;;1.60;1.07;;;;;;;;;;6204682;28;20041;-62
2023/07/31 01:05:05;;;;;;;1.30;1.00;;;;;;;;;;6208292;28;20025;-59
2023/07/31 01:08:15;;;;;;;2.78;1.20;;;;;;;;;;6204209;28;20030;-57
2023/07/31 01:11:19;;;;;;;1.50;1.02;;;;;;;;;;6209139;28;20615;-57
2023/07/31 01:14:19;;;;;;;1.58;1.05;;;;;;;;;;6207048;28;20025;-59
2023/07/31 01:17:19;;;;;;;0.67;0.60;;;;;;;;;;6204138;28;20054;-56
2023/07/31 01:20:24;;;;;;;0.80;0.80;;;;;;;;;;6208241;28;20505;-57
2023/07/31 01:23:24;;;;;;;1.50;1.10;;;;;;;;;;6207299;28;20061;-58
2023/07/31 01:26:28;;;;;;;0.67;0.67;;;;;;;;;;6208154;28;20429;-53
2023/07/31 01:29:30;;;;;;;0.90;0.70;;;;;;;;;;6211036;28;20022;-54
2023/07/31 01:32:32;;;;;;;0.80;0.80;;;;;;;;;;6207504;28;20022;-55
2023/07/31 01:35:32;;;;;;;;;;;;;;;;;;6190641;28;20080;-58
2023/07/31 01:38:32;;;;;;;0.80;0.70;;;;;;;;;;6205699;28;19917;-59
2023/07/31 01:41:32;;;;;;;0.80;0.80;;;;;;;;;;6212620;28;20030;-58
2023/07/31 01:44:32;;;;;;;1.03;0.90;;;;;;;;;;6213191;28;20374;-58
2023/07/31 01:47:33;;;;;;;1.23;0.80;;;;;;;;;;6211842;28;20014;-61
2023/07/31 01:50:33;;;;;;;1.30;0.90;;;;;;;;;;6214855;28;20261;-60
2023/07/31 01:53:33;;;;;;;1.07;0.97;;;;;;;;;;6210634;28;20112;-57
2023/07/31 01:56:33;;;;;;;3.10;1.27;;;;;;;;;;6212921;28;20026;-57
2023/07/31 01:59:34;;;;;;;1.00;0.90;;;;;;;;;;6215378;28;20022;-58
2023/07/31 02:02:34;;;;;;;1.10;1.00;;;;;;;;;;6213610;28;20017;-59
2023/07/31 02:05:34;;;;;;;1.73;1.13;;;;;;;;;;6212554;28;20109;-60
2023/07/31 02:08:34;;;;;;;1.67;1.00;;;;;;;;;;6216179;28;20067;-57
2023/07/31 02:11:35;;;;;;;1.30;0.87;;;;;;;;;;6214004;28;20057;-58
2023/07/31 02:14:35;;;;;;;1.10;0.90;;;;;;;;;;6213601;28;20228;-56
2023/07/31 02:17:35;;;;;;;1.57;0.90;;;;;;;;;;6196222;28;20028;-61
2023/07/31 02:20:35;;;;;;;1.10;1.00;;;;;;;;;;6210173;28;20018;-59
2023/07/31 02:23:35;;;;;;;1.73;0.93;;;;;;;;;;6212571;28;20032;-58
2023/07/31 02:26:36;;;;;;;2.03;0.80;;;;;;;;;;6209779;28;20018;-59
2023/07/31 02:29:36;;;;;;;0.87;0.60;;;;;;;;;;6213686;28;20410;-60
2023/07/31 02:32:36;;;;;;;1.67;0.70;;;;;;;;;;6212804;28;20040;-59
2023/07/31 02:35:36;;;;;;;0.67;0.67;;;;;;;;;;6210272;28;20018;-59
2023/07/31 02:38:37;;;;;;;1.77;0.90;;;;;;;;;;6215704;28;20619;-58
2023/07/31 02:41:37;;;;;;;0.70;0.70;;;;;;;;;;6229785;28;20452;-61
2023/07/31 02:44:37;;;;;;;0.70;0.70;;;;;;;;;;6232391;28;20048;-62
2023/07/31 02:47:37;;;;;;;1.10;1.00;;;;;;;;;;6230643;28;20025;-59
2023/07/31 02:50:38;;;;;;;1.20;0.87;;;;;;;;;;6232808;28;20018;-59
2023/07/31 02:53:38;;;;;;;1.37;1.00;;;;;;;;;;6225013;28;20277;-61
2023/07/31 02:56:38;;;;;;;1.20;0.90;;;;;;;;;;6222321;28;20056;-61
2023/07/31 02:59:38;;;;;;;1.10;0.90;;;;;;;;;;6219678;28;20048;-60
2023/07/31 03:02:39;;;;;;;1.40;1.30;;;;;;;;;;6224934;28;20460;-59
2023/07/31 03:05:39;;;;;;;;;;;;;;;;;;6225795;28;20014;-58
2023/07/31 03:08:39;;;;;;;1.23;0.93;;;;;;;;;;6229905;28;20031;-52
2023/07/31 03:11:39;;;;;;;0.90;0.70;;;;;;;;;;6216106;28;20018;-57
2023/07/31 03:14:39;;;;;;;1.27;1.00;;;;;;;;;;6213577;28;20053;-57
2023/07/31 03:17:39;;;;;;;1.37;0.60;;;;;;;;;;6210537;28;20391;-57
2023/07/31 03:20:44;;;;;;;0.97;0.90;;;;;;;;;;6222450;28;20032;-58
2023/07/31 03:23:44;;;;;;;1.30;1.00;;;;;;;;;;6220102;28;20113;-52
2023/07/31 03:26:44;;;;;;;1.23;0.87;;;;;;;;;;6198581;28;20105;-54
2023/07/31 03:29:44;;;;;;;1.93;0.87;;;;;;;;;;6217883;28;20489;-55
2023/07/31 03:32:45;;;;;;;1.87;0.60;;;;;;;;;;6211623;28;20025;-55
2023/07/31 03:35:45;;;;;;;1.15;0.85;;;;;;;;;;6212318;28;20032;-57
2023/07/31 03:38:46;;;;;;;0.98;0.90;;;;;;;;;;6216945;28;20076;-55
2023/07/31 03:41:46;;;;;;;1.40;1.05;;;;;;;;;;6211504;28;20081;-56
2023/07/31 03:44:46;;;;;;;1.13;1.00;;;;;;;;;;6211261;28;20030;-59
2023/07/31 03:47:47;;;;;;;1.10;1.00;;;;;;;;;;6214492;28;20033;-53
2023/07/31 03:50:47;;;;;;;1.33;1.23;;;;;;;;;;6211020;28;20053;-51
2023/07/31 03:53:47;;;;;;;1.27;0.70;;;;;;;;;;6212467;28;20061;-55
2023/07/31 03:56:47;;;;;;;1.37;0.93;;;;;;;;;;6210073;28;20109;-53
2023/07/31 03:59:47;;;;;;;1.53;1.13;;;;;;;;;;6208834;28;20621;-53
2023/07/31 04:02:49;;;;;;;1.65;0.85;;;;;;;;;;6209411;28;20042;-59
2023/07/31 04:05:49;;;;;;;0.83;0.80;;;;;;;;;;6209956;28;20072;-54
2023/07/31 04:08:49;;;;;;;1.17;0.73;;;;;;;;;;6205262;28;20109;-53
2023/07/31 04:11:49;;;;;;;1.10;0.90;;;;;;;;;;6206298;28;20021;-55
2023/07/31 04:14:50;;;;;;;;;;;;;;;;;;6202267;28;20052;-57
2023/07/31 04:17:50;;;;;;;1.38;1.02;;;;;;;;;;6207829;28;19940;-56
2023/07/31 04:20:50;;;;;;;;;;;;;;;;;;6208992;28;21017;-56
2023/07/31 04:23:50;;;;;;;0.65;0.63;;;;;;;;;;6199625;28;20000;-58
2023/07/31 04:26:51;;;;;;;1.00;0.90;;;;;;;;;;6201423;28;20029;-57
2023/07/31 04:29:51;;;;;;;;;;;;;;;;;;6204758;28;20178;-50
2023/07/31 04:32:52;;;;;;;1.00;0.83;;;;;;;;;;6197313;28;19917;-57
2023/07/31 04:35:52;;;;;;;1.83;1.20;;;;;;;;;;6205741;28;20026;-57
2023/07/31 04:38:53;;;;;;;4.38;1.23;;;;;;;;;;6206288;28;20037;-56
2023/07/31 04:41:53;;;;;;;1.33;1.23;;;;;;;;;;6197910;28;20033;-58
2023/07/31 04:44:53;;;;;;;1.40;1.30;;;;;;;;;;6204758;28;20402;-56
2023/07/31 04:47:53;;;;;;;;;;;;;;;;;;6207570;28;20414;-52
2023/07/31 04:50:54;;;;;;;1.35;0.80;;;;;;;;;;6213191;28;19955;-54
2023/07/31 04:53:54;;;;;;;2.78;1.50;;;;;;;;;;6199903;28;20133;-53
2023/07/31 04:56:54;;;;;;;;;;;;;;;;;;6204064;28;20125;-52
2023/07/31 04:59:54;;;;;;;3.10;1.17;;;;;;;;;;6199748;28;20341;-51
2023/07/31 05:02:55;;;;;;;;;;;;;;;;;;6199760;28;20865;-54
2023/07/31 05:05:55;;;;;;;1.55;1.08;;;;;;;;;;6208862;28;19920;-55
2023/07/31 05:08:55;;;;;;;;;;;;;;;;;;6214667;28;20052;-54
2023/07/31 05:11:55;;;;;;;1.48;1.15;;;;;;;;;;6215836;28;20004;-58
2023/07/31 05:14:55;;;;;;;;;;;;;;;;;;6217283;28;20037;-55
2023/07/31 05:17:55;;;;;;;0.60;0.60;;;;;;;;;;6216800;28;19910;-57
2023/07/31 05:20:56;;;;;;;;;;;;;;;;;;6202360;28;20083;-58
2023/07/31 05:23:56;;;;;;;0.95;0.82;;;;;;;;;;6205591;28;21097;-58
2023/07/31 05:26:56;;;;;;;;;;;;;;;;;;6202825;28;20038;-58
2023/07/31 05:29:56;;;;;;;1.83;1.00;;;;;;;;;;6199049;28;20403;-58
2023/07/31 05:32:56;;;;;;;;;;;;;;;;;;6208131;28;20028;-55
2023/07/31 05:35:57;;;;;;;4.90;1.52;;;;;;;;;;6211210;28;20559;-57
2023/07/31 05:38:57;;;;;;;;;;;;;;;;;;6218315;28;20442;-57
2023/07/31 05:41:57;;;;;;;2.92;2.13;;;;;;;;;;6216727;28;19919;-57
2023/07/31 05:44:57;;;;;;;;;;;;;;;;;;6213612;28;20040;-56
2023/07/31 05:47:57;;;;;;;2.63;1.60;;;;;;;;;;6215999;28;19974;-59
2023/07/31 05:50:57;;;;;;;;;;;;;;;;;;6220694;28;20017;-60
2023/07/31 05:53:58;;;;;;;1.83;1.52;;;;;;;;;;6210791;28;20000;-76
2023/07/31 05:56:58;;;;;;;;;;;;;;;;;;6182820;28;20018;-73
2023/07/31 05:59:58;;;;;;;1.85;1.38;;;;;;;;;;6201603;28;20009;-72
2023/07/31 06:02:58;;;;;;;;;;;;;;;;;;6191204;28;20037;-72
2023/07/31 06:05:58;;;;;;;2.45;1.90;;;;;;;;;;6199911;28;20475;-67
2023/07/31 06:08:59;;;;;;;;;;;;;;;;;;6205451;28;20024;-67
2023/07/31 06:11:59;;;;;;;2.10;1.42;;;;;;;;;;6227285;28;19920;-73
2023/07/31 06:14:59;;;;;;;;;;;;;;;;;;6228580;28;20036;-73
2023/07/31 06:18:01;;;;;;;3.17;1.43;;;;;;;;;;6206434;28;20384;-73
2023/07/31 06:21:02;;;;;;;1.25;1.15;;;;;;;;;;6215214;28;20026;-67
2023/07/31 06:24:02;;;;;;;1.65;1.45;;;;;;;;;;6202167;28;20037;-67
2023/07/31 06:27:03;;;;;;;3.13;2.42;;;;;;;;;;6202117;28;20470;-68
2023/07/31 06:30:04;;;;;;;3.28;2.78;;;;;;;;;;6206364;28;20032;-67
2023/07/31 06:33:04;;;;;;;2.15;1.92;;;;;;;;;;6208858;28;20034;-66
2023/07/31 06:36:05;;;;;;;2.40;1.40;;;;;;;;;;6206024;28;20415;-66
2023/07/31 06:39:05;;;;;;;2.27;1.70;;;;;;;;;;6200100;28;20164;-67
2023/07/31 06:42:05;;;;;;;3.03;2.20;;;;;;;;;;6218545;28;20265;-66
2023/07/31 06:45:06;;;;;;;3.05;1.70;;;;;;;;;;6218846;28;20760;-67
2023/07/31 06:48:06;;;;;;;1.50;1.35;;;;;;;;;;6219351;28;20033;-67
2023/07/31 06:51:07;;;;;;;3.05;1.75;;;;;;;;;;6219567;28;20029;-67
2023/07/31 06:54:07;;;;;;;1.58;1.35;;;;;;;;;;6220594;28;20208;-66
2023/07/31 06:57:08;;;;;;;1.75;1.55;;;;;;;;;;6220694;28;20096;-66
2023/07/31 07:00:08;;;;;;;1.93;1.70;;;;;;;;;;6221065;28;20531;-66
2023/07/31 07:03:08;;;;;;;2.60;1.38;;;;;;;;;;6220784;28;20295;-66
2023/07/31 07:06:09;;;;;;;2.97;1.40;;;;;;;;;;6203114;28;20018;-67
2023/07/31 07:09:09;;;;;;;3.07;1.40;;;;;;;;;;6221498;28;20014;-67
2023/07/31 07:12:09;;;;;;;1.57;0.97;;;;;;;;;;6220928;28;20014;-65
2023/07/31 07:15:09;;;;;;;1.97;1.03;;;;;;;;;;6220568;28;20097;-66
2023/07/31 07:18:10;;;;;;;1.55;1.20;;;;;;;;;;6220772;28;20261;-67
2023/07/31 07:21:14;;;;;;;1.30;1.02;;;;;;;;;;6221012;28;20021;-66
2023/07/31 07:24:14;;;;;;;1.25;1.15;;;;;;;;;;6220950;28;20018;-65
2023/07/31 07:27:14;;;;;;;2.58;1.10;;;;;;;;;;6220175;28;20466;-66
2023/07/31 07:30:15;;;;;;;1.77;1.17;;;;;;;;;;6216167;28;20056;-66
2023/07/31 07:33:15;;;;;;;1.70;1.30;;;;;;;;;;6218981;28;20110;-66
2023/07/31 07:36:15;;;;;;;2.00;1.30;;;;;;;;;;6214001;28;20494;-70
2023/07/31 07:39:15;;;;;;;2.17;1.43;;;;;;;;;;6218055;28;20732;-67
2023/07/31 07:42:16;;;;;;;1.67;0.90;;;;;;;;;;5872753;28;10000410;-68
2023/07/31 07:45:16;;;;;;;1.70;1.40;;;;;;;;;;6217719;28;20017;-68
2023/07/31 07:48:17;;;;;;;2.67;1.33;;;;;;;;;;6218428;28;20014;-68
2023/07/31 07:51:17;;;;;;;2.83;1.70;;;;;;;;;;6200324;28;20101;-68
2023/07/31 07:54:17;;;;;;;1.80;1.20;;;;;;;;;;6210008;28;20084;-69
2023/07/31 07:57:18;;;;;;;2.20;1.13;;;;;;;;;;6217920;28;20479;-66
2023/07/31 08:00:18;;;;;;;2.08;1.35;;;;;;;;;;6200304;28;20024;-67
2023/07/31 08:03:18;;;;;;;3.65;1.40;;;;;;;;;;6216466;28;20029;-66
2023/07/31 08:06:19;;;;;;;1.57;1.07;;;;;;;;;;5523296;28;10021503;-67
2023/07/31 08:09:19;;;;;;;2.37;1.80;;;;;;;;;;6201052;28;20045;-68
2023/07/31 08:12:19;;;;;;;2.60;1.80;;;;;;;;;;6220677;28;20778;-69
2023/07/31 08:15:19;;;;;;;2.33;1.50;;;;;;;;;;6220533;28;20033;-68
2023/07/31 08:18:20;;;;;;;2.53;1.37;;;;;;;;;;6219141;28;20026;-68
2023/07/31 08:21:20;;;;;;;3.00;1.13;;;;;;;;;;6220575;28;20257;-69
2023/07/31 08:24:21;;;;;;;2.72;1.40;;;;;;;;;;6219245;28;20350;-67
2023/07/31 08:27:21;;;;;;;2.00;1.20;;;;;;;;;;6219514;28;20086;-69
2023/07/31 08:30:21;;;;;;;1.33;1.00;;;;;;;;;;6218633;28;20437;-68
2023/07/31 08:33:21;;;;;;;2.53;1.00;;;;;;;;;;6219099;28;20488;-67
2023/07/31 08:36:22;;;;;;;1.43;1.17;;;;;;;;;;6218937;28;20014;-67
2023/07/31 08:39:22;;;;;;;4.63;2.00;;;;;;;;;;6216862;28;20041;-67
2023/07/31 08:42:22;;;;;;;2.93;1.63;;;;;;;;;;6219535;28;20273;-67
2023/07/31 08:45:23;;;;;;;3.40;2.33;;;;;;;;;;6217021;28;20029;-67
2023/07/31 08:48:23;;;;;;;1.90;1.40;;;;;;;;;;6213867;28;20105;-67
2023/07/31 08:51:24;;;;;;;1.58;1.05;;;;;;;;;;6210881;28;20025;-67
2023/07/31 08:54:24;;;;;;;1.47;1.00;;;;;;;;;;6213417;28;20044;-68
2023/07/31 08:57:24;;;;;;;2.55;1.30;;;;;;;;;;6207902;28;20032;-67
2023/07/31 09:00:25;;;;;;;2.58;1.30;;;;;;;;;;6212911;28;20055;-67
2023/07/31 09:03:26;;;;;;;2.28;1.00;;;;;;;;;;6215493;28;20663;-67
2023/07/31 09:06:27;;;;;;;1.42;1.00;;;;;;;;;;6215134;28;20018;-66
2023/07/31 09:09:28;;;;;;;2.08;1.00;;;;;;;;;;6212662;28;20418;-66
2023/07/31 09:12:28;;;;;;;1.67;1.03;;;;;;;;;;6212332;28;20018;-65
2023/07/31 09:15:28;;;;;;;1.98;1.00;;;;;;;;;;6213397;28;20030;-66
2023/07/31 09:18:29;;;;;;;2.00;1.20;;;;;;;;;;6214111;28;20021;-66
2023/07/31 09:21:29;;;;;;;1.90;1.17;;;;;;;;;;6216656;28;20014;-67
2023/07/31 09:24:30;;;;;;;1.75;0.90;;;;;;;;;;6235715;28;20018;-66
2023/07/31 09:27:45;;;;;;;2.00;1.52;;;;;;;;;;6231902;28;20010;-67
2023/07/31 09:30:47;;;;;;;3.50;2.70;;;;;;;;;;6211468;28;20026;-67
2023/07/31 09:33:54;;;;;;;1.88;1.67;;;;;;;;;;6212324;28;20022;-65
2023/07/31 09:36:54;;;;;;;1.98;1.42;;;;;;;;;;6212608;28;20076;-66
2023/07/31 09:39:58;;;;;;;1.58;1.02;;;;;;;;;;6207017;28;20034;-67
2023/07/31 09:43:00;;;;;;;1.95;1.05;;;;;;;;;;6214299;28;20021;-66
2023/07/31 09:46:00;;;;;;;1.88;0.90;;;;;;;;;;6212809;28;20029;-67
2023/07/31 09:49:09;;;;;;;1.60;1.07;;;;;;;;;;6214881;28;21817;-67
2023/07/31 09:52:11;;;;;;;2.17;1.92;;;;;;;;;;6210806;28;20427;-67
2023/07/31 09:55:12;;;;;;;2.10;1.30;;;;;;;;;;6213625;28;20037;-65
2023/07/31 09:58:12;;;;;;;1.58;0.80;;;;;;;;;;6212504;28;20048;-66
2023/07/31 10:01:13;;;;;;;1.50;1.08;;;;;;;;;;5863004;28;10000367;-68
2023/07/31 10:04:14;;;;;;;1.08;0.82;;;;;;;;;;6221617;28;20030;-70
2023/07/31 10:07:17;;;;;;;2.37;0.90;;;;;;;;;;6222070;28;20431;-68
2023/07/31 10:10:19;;;;;;;5.20;1.92;;;;;;;;;;6218030;28;20275;-66
2023/07/31 10:13:22;;;;;;;2.33;1.45;;;;;;;;;;6218985;28;20091;-67
2023/07/31 10:16:22;;;;;;;1.63;1.08;;;;;;;;;;6221531;28;20018;-66
2023/07/31 10:19:22;;;;;;;0.93;0.70;;;;;;;;;;6222568;28;20103;-67
2023/07/31 10:22:23;;;;;;;1.17;1.00;;;;;;;;;;6221881;28;20371;-66
2023/07/31 10:25:24;;;;;;;2.40;1.00;;;;;;;;;;6221963;28;20485;-66
2023/07/31 10:28:24;;;;;;;1.63;0.93;;;;;;;;;;6222092;28;20093;-66
2023/07/31 10:31:25;;;;;;;1.50;0.95;;;;;;;;;;6223385;28;20068;-68
2023/07/31 10:34:25;;;;;;;2.03;1.60;;;;;;;;;;6220620;28;20368;-69
2023/07/31 10:37:28;;;;;;;1.75;1.20;;;;;;;;;;6220114;28;20029;-68
2023/07/31 10:40:28;;;;;;;1.65;1.10;;;;;;;;;;6201934;28;20034;-68
2023/07/31 10:43:30;;;;;;;2.33;1.27;;;;;;;;;;6219379;28;20072;-67
2023/07/31 10:46:30;;;;;;;3.45;3.13;;;;;;;;;;6205482;28;20131;-67
2023/07/31 10:49:32;;;;;;;2.88;2.40;;;;;;;;;;6221979;28;20030;-67
2023/07/31 10:52:34;;;;;;;7.18;6.53;;;;;;;;;;6224712;28;20033;-67
2023/07/31 10:55:41;;;;;;;7.88;7.18;;;;;;;;;;6223797;28;20042;-68
2023/07/31 10:58:43;;;;;;;4.38;3.83;;;;;;;;;;6229617;28;20033;-66
2023/07/31 11:01:51;;;;;;;2.72;2.30;;;;;;;;;;6205284;28;20029;-68
2023/07/31 11:05:07;;;;;;;2.13;1.30;;;;;;;;;;6218840;28;20108;-69
2023/07/31 11:08:19;;;;;;;1.00;0.95;;;;;;;;;;6224727;28;20159;-67
2023/07/31 11:11:19;;;;;;;2.72;0.93;;;;;;;;;;6220327;28;20052;-68
2023/07/31 11:14:20;;;;;;;1.25;1.00;;;;;;;;;;6219276;28;20025;-67
2023/07/31 11:17:24;;;;;;;1.55;1.05;;;;;;;;;;6219330;28;20022;-66
2023/07/31 11:20:24;;;;;;;1.67;0.98;;;;;;;;;;6200761;28;20033;-67
2023/07/31 11:23:24;;;;;;;2.30;1.20;;;;;;;;;;6220703;28;20022;-68
2023/07/31 11:26:25;;;;;;;1.40;1.20;;;;;;;;;;6215725;28;21795;-67
2023/07/31 11:29:27;;;;;;;2.23;1.03;;;;;;;;;;6219191;28;20036;-66
2023/07/31 11:32:27;;;;;;;1.83;1.55;;;;;;;;;;6220250;28;20268;-67
2023/07/31 11:35:27;;;;;;;3.57;2.00;;;;;;;;;;6215304;28;20534;-67
2023/07/31 11:38:29;;;;;;;4.13;1.23;;;;;;;;;;6219735;28;20573;-68
2023/07/31 11:41:29;;;;;;;1.70;1.10;;;;;;;;;;6218350;28;20044;-66
2023/07/31 11:44:37;;;;;;;1.27;1.00;;;;;;;;;;6220697;28;20018;-68
2023/07/31 11:47:37;;;;;;;2.20;1.23;;;;;;;;;;6220706;28;20033;-68
2023/07/31 11:50:38;;;;;;;1.17;1.00;;;;;;;;;;6216581;28;20057;-68
2023/07/31 11:53:42;;;;;;;1.70;1.10;;;;;;;;;;6216625;28;20101;-68
2023/07/31 11:56:43;;;;;;;3.50;1.13;;;;;;;;;;6220541;28;20496;-67
2023/07/31 11:59:43;;;;;;;2.33;1.35;;;;;;;;;;6216431;28;20026;-67
2023/07/31 12:02:44;;;;;;;1.48;1.30;;;;;;;;;;5870444;28;10000086;-67
2023/07/31 12:05:46;;;;;;;1.52;1.10;;;;;;;;;;6218651;28;20017;-67
2023/07/31 12:08:47;;;;;;;1.35;1.00;;;;;;;;;;5519266;28;10000835;-66
2023/07/31 12:11:47;;;;;;;3.03;2.00;;;;;;;;;;6200485;28;20062;-67
2023/07/31 12:14:48;;;;;;;2.78;2.20;;;;;;;;;;6219831;28;20030;-69
2023/07/31 12:17:48;;;;;;;3.47;1.50;;;;;;;;;;6219471;28;20616;-68
2023/07/31 12:20:53;;;;;;;1.13;1.03;;;;;;;;;;6219489;28;20022;-69
2023/07/31 12:23:53;;;;;;;1.02;0.93;;;;;;;;;;6220746;28;20101;-69
2023/07/31 12:26:55;;;;;;;1.10;1.00;;;;;;;;;;6218977;28;20029;-66
2023/07/31 12:29:55;;;;;;;1.58;1.20;;;;;;;;;;6222077;28;20021;-67
2023/07/31 12:32:55;;;;;;;1.03;0.93;;;;;;;;;;6228194;28;20359;-68
2023/07/31 12:35:56;;;;;;;0.93;0.90;;;;;;;;;;6226786;28;20022;-67
2023/07/31 12:38:58;;;;;;;1.70;1.10;;;;;;;;;;6229849;28;20018;-68
2023/07/31 12:41:59;;;;;;;1.33;1.20;;;;;;;;;;6213717;28;20022;-67
2023/07/31 12:44:59;;;;;;;1.33;1.13;;;;;;;;;;6241432;28;20022;-68
2023/07/31 12:48:00;;;;;;;1.20;1.10;;;;;;;;;;6234176;28;20014;-67
2023/07/31 12:51:00;;;;;;;1.60;1.33;;;;;;;;;;6235909;28;20474;-67
2023/07/31 12:54:01;;;;;;;1.30;1.20;;;;;;;;;;6236485;28;20034;-68
2023/07/31 12:57:01;;;;;;;1.93;1.43;;;;;;;;;;6245903;28;20014;-68
2023/07/31 13:00:01;;;;;;;2.10;1.60;;;;;;;;;;6245074;28;20053;-66
2023/07/31 13:03:02;;;;;;;1.60;1.50;;;;;;;;;;6244794;28;20021;-66
2023/07/31 13:06:03;;;;;;;1.95;1.40;;;;;;;;;;6220872;28;20049;-67
2023/07/31 13:09:04;;;;;;;1.53;1.30;;;;;;;;;;6222230;28;20018;-69
2023/07/31 13:12:04;;;;;;;1.40;1.15;;;;;;;;;;6219758;28;20018;-69
2023/07/31 13:15:05;;;;;;;1.45;1.35;;;;;;;;;;6219494;28;20064;-68
2023/07/31 13:18:05;;;;;;;1.38;1.27;;;;;;;;;;6219725;28;20096;-68
2023/07/31 13:21:05;;;;;;;2.30;1.27;;;;;;;;;;6218968;28;20022;-67
2023/07/31 13:24:05;;;;;;;1.93;1.50;;;;;;;;;;6219564;28;20024;-70
2023/07/31 13:27:06;;;;;;;1.53;1.40;;;;;;;;;;6219135;28;20057;-69
2023/07/31 13:30:06;;;;;;;1.50;1.40;;;;;;;;;;6218131;28;20040;-68
2023/07/31 13:33:06;;;;;;;1.70;1.40;;;;;;;;;;6218345;28;20497;-68
2023/07/31 13:36:07;;;;;;;1.73;1.33;;;;;;;;;;6212590;28;20478;-68
2023/07/31 13:39:07;;;;;;;1.33;1.23;;;;;;;;;;6223497;28;20080;-68
2023/07/31 13:42:08;;;;;;;1.60;1.43;;;;;;;;;;6223343;28;20418;-66
2023/07/31 13:45:08;;;;;;;2.08;1.25;;;;;;;;;;6205854;28;20022;-69
2023/07/31 13:48:09;;;;;;;1.30;1.00;;;;;;;;;;6221065;28;20022;-68
2023/07/31 13:51:09;;;;;;;1.77;1.30;;;;;;;;;;6223394;28;20076;-68
2023/07/31 17:08:16;;;;;;;1.05;0.95;;;;;;;;;;6264879;28;20037;-69
2023/07/31 17:11:16;;;;;;;1.48;1.10;;;;;;;;;;6243397;28;20472;-67
2023/07/31 17:14:16;;;;;;;1.53;0.90;;;;;;;;;;6241394;28;20094;-66
2023/07/31 17:17:17;;;;;;;1.43;0.80;;;;;;;;;;6241863;28;20056;-69
2023/07/31 17:20:17;;;;;;;1.77;1.10;;;;;;;;;;6244344;28;20021;-70
2023/07/31 17:23:17;;;;;;;1.90;1.10;;;;;;;;;;5543586;28;10000663;-68
2023/07/31 17:26:17;;;;;;;2.47;0.87;;;;;;;;;;6231363;28;20112;-69
2023/07/31 17:29:18;;;;;;;1.57;1.10;;;;;;;;;;7003597;23;20050;-69
2023/07/31 17:32:18;;;;;;;1.40;1.20;;;;;;;;;;6223687;28;20330;-68
2023/07/31 17:35:18;;;;;;;1.02;0.93;;;;;;;;;;6211801;28;20381;-67
2023/07/31 17:38:18;;;;;;;2.97;2.50;;;;;;;;;;6209211;28;20427;-68
2023/07/31 17:41:19;;;;;;;4.90;2.90;;;;;;;;;;6207140;28;20145;-69
2023/07/31 17:44:19;;;;;;;2.78;2.45;;;;;;;;;;6215081;22;20113;-65
2023/07/31 17:47:20;;;;;;;1.60;1.50;;;;;;;;;;6189118;28;20073;-66
2023/07/31 17:50:20;;;;;;;1.73;1.17;;;;;;;;;;6193784;28;20394;-66
2023/07/31 17:53:20;;;;;;;2.27;1.10;;;;;;;;;;6194665;28;20030;-65
2023/07/31 17:56:21;;;;;;;1.23;1.02;;;;;;;;;;6184602;28;20030;-65
2023/07/31 17:59:21;;;;;;;1.90;1.10;;;;;;;;;;6199292;28;20351;-66
2023/07/31 18:02:21;;;;;;;1.90;1.45;;;;;;;;;;6190771;28;20280;-65
2023/07/31 18:05:22;;;;;;;5.50;4.53;;;;;;;;;;6179642;28;20066;-64
2023/07/31 18:08:22;;;;;;;4.47;2.97;;;;;;;;;;6185767;28;20076;-66
2023/07/31 18:11:26;;;;;;;2.40;2.00;;;;;;;;;;6185781;28;20281;-66
2023/07/31 18:14:27;;;;;;;2.63;2.05;;;;;;;;;;6186574;28;20383;-68
2023/07/31 18:17:28;;;;;;;1.92;1.70;;;;;;;;;;6178951;28;20033;-64
2023/07/31 18:20:28;;;;;;;2.03;1.30;;;;;;;;;;6194633;28;20030;-65
2023/07/31 18:23:28;;;;;;;3.67;1.10;;;;;;;;;;6195359;28;20096;-66
2023/07/31 18:26:28;;;;;;;3.60;1.70;;;;;;;;;;6200048;28;20336;-67
2023/07/31 18:29:29;;;;;;;2.70;1.90;;;;;;;;;;6200611;28;20038;-66
2023/07/31 18:32:29;;;;;;;2.07;1.60;;;;;;;;;;6199139;28;20357;-66
2023/07/31 18:35:29;;;;;;;1.93;1.50;;;;;;;;;;6198152;28;20437;-66
2023/07/31 18:38:31;;;;;;;1.92;1.67;;;;;;;;;;6199549;28;20022;-65
2023/07/31 18:41:32;;;;;;;2.22;1.65;;;;;;;;;;6198410;28;20030;-66
2023/07/31 18:44:32;;;;;;;2.57;1.40;;;;;;;;;;6196855;28;20029;-67
2023/07/31 18:47:32;;;;;;;1.70;1.53;;;;;;;;;;6198886;28;20281;-66
2023/07/31 18:50:32;;;;;;;2.28;1.92;;;;;;;;;;6198792;28;20274;-66
2023/07/31 18:53:33;;;;;;;2.43;1.70;;;;;;;;;;6197539;28;20018;-65
2023/07/31 18:56:34;;;;;;;1.60;1.33;;;;;;;;;;6200274;28;20401;-65
2023/07/31 18:59:34;;;;;;;2.42;1.70;;;;;;;;;;6195806;28;20289;-65
2023/07/31 19:02:34;;;;;;;3.30;2.00;;;;;;;;;;6176930;28;20114;-66
2023/07/31 19:05:35;;;;;;;3.43;2.60;;;;;;;;;;6179379;28;20365;-67
2023/07/31 19:08:35;;;;;;;2.67;2.00;;;;;;;;;;6197583;28;20245;-67
2023/07/31 19:11:35;;;;;;;2.27;1.50;;;;;;;;;;6198642;28;20254;-68
2023/07/31 19:14:35;;;;;;;1.40;1.20;;;;;;;;;;6197709;28;20250;-67
2023/07/31 19:17:38;;;;;;;1.40;1.13;;;;;;;;;;6198105;28;20487;-67
2023/07/31 19:20:38;;;;;;;1.75;1.40;;;;;;;;;;6198852;28;20014;-66
2023/07/31 19:23:38;;;;;;;2.27;1.30;;;;;;;;;;6198241;28;20018;-65
2023/07/31 19:26:38;;;;;;;2.03;1.40;;;;;;;;;;6198221;28;20737;-65
2023/07/31 19:29:38;;;;;;;3.47;1.50;;;;;;;;;;6198379;28;20018;-66
2023/07/31 19:32:39;;;;;;;2.00;1.27;;;;;;;;;;6197732;28;20014;-67
2023/07/31 19:35:39;;;;;;;2.20;1.50;;;;;;;;;;6197877;28;20097;-68
2023/07/31 19:38:39;;;;;;;1.83;1.40;;;;;;;;;;6198780;28;20617;-65
2023/07/31 19:41:41;;;;;;;1.83;1.38;;;;;;;;;;6197787;28;20284;-67
2023/07/31 19:44:42;;;;;;;2.10;1.30;;;;;;;;;;6195856;28;20014;-66
2023/07/31 19:47:42;;;;;;;1.77;1.17;;;;;;;;;;6196562;28;20537;-66
2023/07/31 19:50:42;;;;;;;2.83;1.70;;;;;;;;;;6196636;28;20271;-66
2023/07/31 19:53:42;;;;;;;1.48;1.38;;;;;;;;;;6196233;28;20730;-66
2023/07/31 19:56:43;;;;;;;2.88;1.80;;;;;;;;;;6196929;28;20022;-68
2023/07/31 19:59:43;;;;;;;3.23;1.43;;;;;;;;;;6196557;28;20033;-67
2023/07/31 20:02:43;;;;;;;3.45;1.88;;;;;;;;;;6196199;28;20256;-67
2023/07/31 20:05:44;;;;;;;2.17;1.60;;;;;;;;;;6193024;28;20521;-67
2023/07/31 20:08:44;;;;;;;1.30;1.20;;;;;;;;;;6185236;28;20374;-66
2023/07/31 20:11:44;;;;;;;1.47;1.37;;;;;;;;;;6181754;28;20038;-66
2023/07/31 20:14:44;;;;;;;1.95;1.38;;;;;;;;;;6177780;28;20633;-65
2023/07/31 20:17:45;;;;;;;1.93;1.40;;;;;;;;;;6205234;28;20036;-64
2023/07/31 20:20:45;;;;;;;2.85;1.40;;;;;;;;;;6193833;28;20292;-63
2023/07/31 20:23:46;;;;;;;2.42;1.38;;;;;;;;;;6206879;28;20033;-69
2023/07/31 20:26:46;;;;;;;2.33;1.20;;;;;;;;;;6182345;28;20150;-68
2023/07/31 20:29:46;;;;;;;1.95;1.50;;;;;;;;;;6191840;28;20022;-66
2023/07/31 20:32:46;;;;;;;3.80;1.40;;;;;;;;;;6193516;28;20040;-65
2023/07/31 20:35:47;;;;;;;2.28;1.67;;;;;;;;;;6195527;28;20022;-68
2023/07/31 20:38:47;;;;;;;1.50;1.40;;;;;;;;;;5491329;28;10000327;-67
2023/07/31 20:41:49;;;;;;;1.95;1.52;;;;;;;;;;6185827;28;20030;-67
2023/07/31 20:44:49;;;;;;;1.70;1.40;;;;;;;;;;6183371;28;20171;-67
2023/07/31 20:47:50;;;;;;;2.57;1.43;;;;;;;;;;6185560;28;20034;-68
2023/07/31 20:50:50;;;;;;;2.07;1.63;;;;;;;;;;6185621;28;20050;-66
2023/07/31 20:53:51;;;;;;;4.03;1.60;;;;;;;;;;6180900;28;20340;-67
2023/07/31 20:56:56;;;;;;;1.65;1.15;;;;;;;;;;5844069;28;10000520;-67
2023/07/31 20:59:57;;;;;;;1.52;1.40;;;;;;;;;;6194733;28;20384;-66
2023/07/31 21:02:57;;;;;;;2.57;1.93;;;;;;;;;;6190012;28;20101;-66
2023/07/31 21:05:59;;;;;;;4.60;1.93;;;;;;;;;;6184415;28;20290;-65
2023/07/31 21:08:59;;;;;;;1.88;1.38;;;;;;;;;;6168653;28;20296;-68
2023/07/31 21:11:59;;;;;;;3.97;2.10;;;;;;;;;;6182252;28;20034;-65
2023/07/31 21:15:00;;;;;;;1.90;1.40;;;;;;;;;;6178757;28;20280;-66
2023/07/31 21:18:00;;;;;;;3.30;1.50;;;;;;;;;;6166699;28;20313;-64
2023/07/31 21:21:00;;;;;;;2.47;1.40;;;;;;;;;;6168689;28;20486;-64
2023/07/31 21:24:01;;;;;;;1.80;1.30;;;;;;;;;;6184885;28;20293;-64